createdAt,value
2019-05-19T00:01:12.205Z,57.40
2019-05-19T00:03:42.764Z,57.50
2019-05-19T00:06:13.216Z,57.50
2019-05-19T00:08:43.888Z,57.50
2019-05-19T00:11:15.561Z,57.70
2019-05-19T00:13:46.280Z,57.60
2019-05-19T00:16:16.809Z,57.70
2019-05-19T00:18:47.292Z,57.80
2019-05-19T00:21:17.828Z,57.80
2019-05-19T00:23:48.294Z,58.10
2019-05-19T00:26:18.778Z,58.40
2019-05-19T00:28:49.309Z,57.80
2019-05-19T00:31:19.942Z,57.90
2019-05-19T00:33:50.468Z,58.00
2019-05-19T00:36:21.153Z,58.00
2019-05-19T00:38:51.721Z,58.00
2019-05-19T00:41:22.240Z,58.00
2019-05-19T00:43:52.984Z,58.10
2019-05-19T00:46:23.783Z,58.10
2019-05-19T00:48:54.232Z,58.20
2019-05-19T00:51:25.194Z,58.30
2019-05-19T00:53:55.678Z,58.30
2019-05-19T00:56:27.240Z,58.40
2019-05-19T00:59:00.202Z,58.40
2019-05-19T01:01:30.831Z,58.60
2019-05-19T01:04:01.513Z,58.70
2019-05-19T01:06:34.999Z,58.40
2019-05-19T01:09:07.589Z,58.90
2019-05-19T01:11:38.094Z,58.70
2019-05-19T01:14:08.717Z,58.80
2019-05-19T01:16:39.214Z,58.90
2019-05-19T01:19:09.960Z,58.90
2019-05-19T01:21:41.922Z,59.00
2019-05-19T01:24:16.203Z,59.00
2019-05-19T01:26:46.707Z,59.00
2019-05-19T01:29:17.225Z,59.10
2019-05-19T01:31:47.677Z,59.10
2019-05-19T01:34:18.171Z,59.20
2019-05-19T01:36:48.666Z,59.40
2019-05-19T01:39:19.247Z,59.50
2019-05-19T01:41:49.947Z,59.70
2019-05-19T01:44:20.405Z,59.80
2019-05-19T01:46:51.011Z,60.00
2019-05-19T01:49:21.565Z,60.20
2019-05-19T01:51:52.158Z,60.30
2019-05-19T01:54:22.611Z,60.30
2019-05-19T01:56:53.184Z,60.60
2019-05-19T01:59:23.732Z,60.60
2019-05-19T02:01:54.673Z,60.70
2019-05-19T02:04:25.132Z,60.60
2019-05-19T02:06:56.491Z,60.60
2019-05-19T02:09:26.917Z,60.40
2019-05-19T02:11:57.495Z,60.40
2019-05-19T02:14:27.945Z,60.50
2019-05-19T02:16:58.414Z,60.40
2019-05-19T02:19:28.856Z,60.50
2019-05-19T02:21:59.315Z,60.50
2019-05-19T02:24:29.867Z,60.70
2019-05-19T02:27:01.549Z,60.90
2019-05-19T02:29:32.173Z,61.30
2019-05-19T02:32:02.922Z,61.30
2019-05-19T02:34:33.368Z,61.50
2019-05-19T02:37:03.990Z,61.60
2019-05-19T02:39:34.445Z,61.60
2019-05-19T02:42:07.542Z,61.60
2019-05-19T02:44:40.140Z,61.60
2019-05-19T02:47:14.581Z,61.60
2019-05-19T02:49:46.730Z,61.70
2019-05-19T02:52:19.411Z,61.60
2019-05-19T02:54:51.404Z,61.80
2019-05-19T02:57:23.572Z,60.60
2019-05-19T02:59:54.928Z,60.50
2019-05-19T03:02:25.406Z,60.50
2019-05-19T03:04:56.265Z,60.60
2019-05-19T03:07:27.089Z,60.50
2019-05-19T03:09:59.878Z,60.60
2019-05-19T03:12:30.540Z,60.60
2019-05-19T03:15:01.122Z,60.50
2019-05-19T03:17:31.629Z,60.60
2019-05-19T03:20:02.103Z,60.70
2019-05-19T03:22:32.591Z,60.70
2019-05-19T03:25:03.114Z,60.80
2019-05-19T03:27:35.839Z,60.90
2019-05-19T03:30:25.341Z,61.00
2019-05-19T03:32:59.941Z,61.10
2019-05-19T03:35:30.399Z,61.20
2019-05-19T03:38:01.160Z,61.30
2019-05-19T03:40:33.810Z,61.30
2019-05-19T03:43:04.460Z,61.40
2019-05-19T03:45:35.005Z,61.50
2019-05-19T03:48:05.455Z,61.60
2019-05-19T03:50:36.349Z,61.50
2019-05-19T03:53:07.176Z,62.00
2019-05-19T03:55:37.699Z,61.80
2019-05-19T03:58:08.166Z,62.00
2019-05-19T04:00:38.661Z,62.00
2019-05-19T04:03:09.477Z,62.00
2019-05-19T04:05:42.317Z,62.00
2019-05-19T04:08:12.808Z,62.10
2019-05-19T04:10:43.344Z,62.20
2019-05-19T04:13:16.389Z,62.20
2019-05-19T04:15:46.850Z,62.50
2019-05-19T04:18:17.390Z,62.30
2019-05-19T04:20:48.185Z,62.50
2019-05-19T04:23:18.650Z,62.50
2019-05-19T04:25:49.152Z,62.60
2019-05-19T04:28:23.702Z,62.60
2019-05-19T04:30:54.309Z,62.80
2019-05-19T04:33:24.811Z,62.90
2019-05-19T04:35:57.539Z,63.10
2019-05-19T04:38:27.515Z,63.00
2019-05-19T04:40:57.976Z,63.00
2019-05-19T04:43:36.186Z,63.00
2019-05-19T04:46:06.370Z,63.10
2019-05-19T04:48:36.866Z,63.10
2019-05-19T04:51:07.358Z,63.30
2019-05-19T04:53:37.866Z,63.30
2019-05-19T04:56:09.554Z,63.40
2019-05-19T04:58:40.254Z,63.40
2019-05-19T05:01:10.803Z,63.40
2019-05-19T05:03:41.481Z,63.40
2019-05-19T05:06:12.093Z,63.60
2019-05-19T05:08:42.612Z,63.70
2019-05-19T05:11:15.300Z,63.80
2019-05-19T05:13:48.594Z,63.70
2019-05-19T05:16:19.112Z,63.70
2019-05-19T05:18:49.608Z,63.70
2019-05-19T05:21:20.516Z,64.10
2019-05-19T05:23:50.945Z,64.20
2019-05-19T05:26:21.595Z,64.00
2019-05-19T05:29:00.808Z,64.10
2019-05-19T05:31:31.453Z,63.90
2019-05-19T05:34:02.017Z,64.00
2019-05-19T05:36:32.511Z,64.00
2019-05-19T05:39:03.348Z,64.90
2019-05-19T05:41:33.782Z,64.30
2019-05-19T05:44:05.223Z,64.10
2019-05-19T05:46:36.678Z,64.40
2019-05-19T05:49:07.726Z,64.30
2019-05-19T05:51:38.191Z,64.20
2019-05-19T05:54:08.901Z,64.40
2019-05-19T05:56:39.327Z,64.50
2019-05-19T05:59:09.833Z,64.30
2019-05-19T06:01:42.212Z,64.40
2019-05-19T06:04:13.545Z,64.50
2019-05-19T06:06:45.885Z,64.30
2019-05-19T06:09:18.722Z,64.40
2019-05-19T06:11:49.202Z,65.30
2019-05-19T06:14:19.820Z,64.30
2019-05-19T06:16:51.638Z,64.30
2019-05-19T06:19:22.282Z,64.30
2019-05-19T06:21:52.754Z,64.20
2019-05-19T06:24:23.392Z,64.20
2019-05-19T06:26:53.879Z,64.00
2019-05-19T06:29:24.655Z,64.00
2019-05-19T06:31:59.133Z,64.00
2019-05-19T06:34:29.833Z,64.00
2019-05-19T06:37:00.663Z,64.00
2019-05-19T06:39:31.111Z,64.00
2019-05-19T06:42:01.804Z,64.00
2019-05-19T06:44:32.479Z,64.00
2019-05-19T06:47:02.970Z,63.90
2019-05-19T06:49:33.584Z,63.90
2019-05-19T06:52:04.279Z,63.90
2019-05-19T06:54:34.840Z,63.80
2019-05-19T06:57:05.372Z,63.70
2019-05-19T06:59:35.867Z,63.70
2019-05-19T07:02:06.549Z,63.60
2019-05-19T07:04:37.204Z,63.60
2019-05-19T07:07:07.729Z,63.40
2019-05-19T07:09:38.240Z,63.40
2019-05-19T07:12:08.757Z,63.30
2019-05-19T07:14:39.541Z,63.30
2019-05-19T07:17:11.185Z,63.40
2019-05-19T07:19:41.789Z,63.10
2019-05-19T07:22:12.418Z,63.10
2019-05-19T07:24:42.881Z,63.00
2019-05-19T07:27:13.469Z,62.90
2019-05-19T07:29:44.045Z,62.70
2019-05-19T07:32:15.167Z,62.70
2019-05-19T07:34:46.161Z,62.50
2019-05-19T07:37:16.671Z,62.40
2019-05-19T07:39:47.771Z,62.30
2019-05-19T07:42:18.305Z,62.30
2019-05-19T07:44:50.473Z,62.10
2019-05-19T07:47:21.705Z,62.30
2019-05-19T07:49:52.189Z,62.10
2019-05-19T07:52:23.485Z,62.10
2019-05-19T07:54:54.664Z,61.80
2019-05-19T07:57:25.742Z,61.80
2019-05-19T07:59:56.611Z,61.60
2019-05-19T08:02:27.123Z,61.50
2019-05-19T08:04:57.783Z,61.60
2019-05-19T08:07:28.307Z,61.20
2019-05-19T08:09:58.865Z,61.40
2019-05-19T08:12:29.371Z,61.30
2019-05-19T08:14:59.824Z,61.10
2019-05-19T08:17:30.342Z,61.00
2019-05-19T08:20:00.982Z,60.90
2019-05-19T08:22:31.769Z,60.90
2019-05-19T08:25:02.459Z,61.10
2019-05-19T08:27:33.337Z,61.60
2019-05-19T08:30:04.997Z,60.60
2019-05-19T08:32:36.104Z,60.50
2019-05-19T08:35:07.104Z,60.50
2019-05-19T08:37:38.121Z,60.30
2019-05-19T08:40:09.129Z,60.20
2019-05-19T08:42:39.616Z,60.20
2019-05-19T08:45:11.230Z,60.00
2019-05-19T08:47:41.772Z,59.90
2019-05-19T08:50:12.591Z,59.90
2019-05-19T08:52:43.634Z,59.70
2019-05-19T08:55:15.736Z,59.60
2019-05-19T08:57:46.373Z,59.50
2019-05-19T09:00:17.117Z,59.40
2019-05-19T09:03:09.537Z,59.30
2019-05-19T09:05:41.676Z,59.20
2019-05-19T09:08:12.210Z,59.20
2019-05-19T09:10:43.810Z,58.90
2019-05-19T09:13:14.551Z,58.80
2019-05-19T09:15:45.070Z,58.70
2019-05-19T09:18:15.679Z,58.60
2019-05-19T09:20:46.186Z,58.60
2019-05-19T09:23:17.459Z,58.60
2019-05-19T09:25:48.361Z,58.50
2019-05-19T09:28:19.034Z,58.30
2019-05-19T09:30:57.306Z,58.00
2019-05-19T09:33:27.859Z,57.70
2019-05-19T09:36:00.464Z,57.50
2019-05-19T09:38:31.022Z,57.40
2019-05-19T09:41:01.550Z,57.40
2019-05-19T09:43:37.077Z,57.30
2019-05-19T09:46:08.414Z,57.10
2019-05-19T09:48:39.341Z,57.00
2019-05-19T09:51:09.914Z,56.90
2019-05-19T09:53:40.709Z,56.80
2019-05-19T09:56:11.198Z,56.70
2019-05-19T09:58:42.147Z,57.00
2019-05-19T10:01:13.140Z,56.20
2019-05-19T10:03:46.682Z,56.00
2019-05-19T10:06:17.574Z,56.60
2019-05-19T10:09:00.332Z,55.80
2019-05-19T10:12:05.952Z,55.50
2019-05-19T10:14:36.768Z,55.20
2019-05-19T10:17:07.401Z,55.10
2019-05-19T10:19:38.020Z,54.70
2019-05-19T10:22:09.877Z,54.40
2019-05-19T10:24:40.384Z,54.10
2019-05-19T10:27:13.446Z,53.60
2019-05-19T10:29:44.510Z,53.30
2019-05-19T10:32:15.015Z,52.90
2019-05-19T10:34:45.514Z,52.70
2019-05-19T10:37:17.145Z,52.20
2019-05-19T10:39:47.696Z,51.80
2019-05-19T10:42:18.175Z,51.40
2019-05-19T10:44:48.706Z,51.00
2019-05-19T10:47:19.194Z,50.80
2019-05-19T10:49:49.674Z,50.90
2019-05-19T10:52:20.197Z,50.90
2019-05-19T10:54:51.163Z,51.00
2019-05-19T10:57:24.927Z,49.80
2019-05-19T10:59:55.482Z,49.30
2019-05-19T11:02:25.997Z,48.60
2019-05-19T11:04:56.533Z,47.90
2019-05-19T11:07:27.299Z,47.10
2019-05-19T11:09:57.744Z,46.40
2019-05-19T11:12:30.104Z,45.60
2019-05-19T11:15:00.585Z,45.00
2019-05-19T11:17:31.102Z,44.80
2019-05-19T11:20:02.080Z,44.30
2019-05-19T11:22:32.931Z,43.60
2019-05-19T11:25:03.499Z,42.90
2019-05-19T11:27:34.216Z,42.20
2019-05-19T11:30:05.482Z,41.40
2019-05-19T11:32:39.474Z,40.80
2019-05-19T11:35:11.243Z,40.20
2019-05-19T11:37:41.925Z,39.60
2019-05-19T11:40:13.043Z,39.00
2019-05-19T11:42:46.764Z,38.60
2019-05-19T11:45:16.244Z,38.30
2019-05-19T11:47:46.880Z,38.00
2019-05-19T11:50:17.887Z,37.50
2019-05-19T11:52:48.434Z,37.20
2019-05-19T11:55:18.980Z,36.60
2019-05-19T11:57:49.523Z,36.20
2019-05-19T12:00:21.523Z,36.00
2019-05-19T12:02:52.211Z,35.70
2019-05-19T12:05:23.121Z,35.40
2019-05-19T12:07:53.670Z,35.10
2019-05-19T12:10:24.409Z,34.60
2019-05-19T12:12:55.133Z,34.20
2019-05-19T12:15:26.097Z,33.80
2019-05-19T12:17:58.560Z,33.50
2019-05-19T12:20:29.378Z,33.00
2019-05-19T12:23:00.004Z,32.50
2019-05-19T12:25:32.389Z,31.70
2019-05-19T12:28:03.073Z,31.00
2019-05-19T12:30:34.786Z,30.50
2019-05-19T12:33:05.366Z,29.90
2019-05-19T12:35:35.958Z,29.30
2019-05-19T12:38:06.573Z,28.80
2019-05-19T12:40:37.101Z,28.50
2019-05-19T12:43:08.681Z,28.00
2019-05-19T12:45:39.184Z,27.40
2019-05-19T12:48:09.690Z,27.30
2019-05-19T12:50:40.220Z,26.90
2019-05-19T12:53:10.746Z,26.50
2019-05-19T12:55:41.283Z,26.30
2019-05-19T12:58:12.055Z,26.10
2019-05-19T13:00:42.544Z,26.00
2019-05-19T13:03:13.233Z,25.90
2019-05-19T13:05:43.829Z,25.90
2019-05-19T13:08:14.919Z,25.80
2019-05-19T13:10:45.511Z,25.70
2019-05-19T13:13:15.993Z,25.80
2019-05-19T13:15:46.535Z,25.90
2019-05-19T13:18:17.455Z,25.90
2019-05-19T13:20:47.932Z,25.90
2019-05-19T13:23:18.468Z,26.00
2019-05-19T13:25:49.068Z,25.80
2019-05-19T13:28:20.604Z,25.80
2019-05-19T13:30:52.000Z,25.90
2019-05-19T13:33:22.531Z,26.00
2019-05-19T13:35:53.134Z,26.00
2019-05-19T13:38:23.718Z,25.70
2019-05-19T13:40:56.120Z,25.40
2019-05-19T13:43:27.812Z,25.00
2019-05-19T13:45:58.690Z,24.40
2019-05-19T13:48:29.182Z,23.80
2019-05-19T13:50:59.700Z,23.00
2019-05-19T13:53:31.268Z,22.20
2019-05-19T13:56:02.201Z,21.60
2019-05-19T13:58:32.709Z,21.10
2019-05-19T14:01:03.540Z,20.90
2019-05-19T14:03:34.279Z,21.00
2019-05-19T14:06:05.328Z,21.20
2019-05-19T14:08:35.912Z,21.60
2019-05-19T14:11:08.861Z,22.00
2019-05-19T14:13:39.344Z,22.20
2019-05-19T14:16:11.105Z,22.30
2019-05-19T14:18:41.604Z,22.10
2019-05-19T14:21:15.152Z,21.80
2019-05-19T14:23:46.182Z,21.40
2019-05-19T14:26:16.689Z,21.20
2019-05-19T14:28:47.166Z,21.20
2019-05-19T14:31:17.776Z,21.10
2019-05-19T14:33:48.702Z,20.90
2019-05-19T14:36:19.591Z,20.60
2019-05-19T14:39:05.286Z,20.30
2019-05-19T14:41:39.708Z,20.10
2019-05-19T14:44:10.242Z,20.30
2019-05-19T14:46:41.244Z,20.70
2019-05-19T14:49:11.734Z,20.90
2019-05-19T14:51:43.332Z,21.30
2019-05-19T14:54:14.219Z,21.70
2019-05-19T14:56:44.993Z,22.20
2019-05-19T14:59:16.076Z,22.70
2019-05-19T15:01:46.563Z,23.60
2019-05-19T15:04:17.125Z,24.10
2019-05-19T15:06:47.981Z,24.70
2019-05-19T15:09:20.076Z,25.10
2019-05-19T15:11:50.802Z,25.60
2019-05-19T15:14:22.088Z,26.00
2019-05-19T15:16:52.640Z,26.50
2019-05-19T15:19:24.408Z,26.90
2019-05-19T15:21:55.230Z,27.10
2019-05-19T15:24:25.776Z,27.40
2019-05-19T15:26:56.410Z,27.90
2019-05-19T15:29:26.873Z,28.40
2019-05-19T15:31:58.426Z,29.10
2019-05-19T15:34:29.759Z,29.60
2019-05-19T15:37:00.767Z,30.10
2019-05-19T15:39:32.258Z,30.30
2019-05-19T15:42:04.171Z,30.70
2019-05-19T15:44:34.680Z,30.90
2019-05-19T15:47:08.598Z,31.30
2019-05-19T15:49:45.450Z,31.90
2019-05-19T15:52:16.003Z,32.50
2019-05-19T15:54:51.815Z,32.40
2019-05-19T15:57:22.855Z,32.80
2019-05-19T15:59:53.566Z,33.10
2019-05-19T16:02:24.088Z,32.00
2019-05-19T16:04:54.798Z,31.30
2019-05-19T16:07:25.352Z,30.90
2019-05-19T16:09:55.847Z,31.00
2019-05-19T16:12:26.500Z,31.70
2019-05-19T16:14:57.007Z,31.80
2019-05-19T16:17:27.549Z,31.80
2019-05-19T16:19:58.060Z,31.20
2019-05-19T16:22:28.567Z,31.50
2019-05-19T16:24:59.057Z,31.60
2019-05-19T16:27:30.002Z,31.50
2019-05-19T16:30:01.375Z,31.60
2019-05-19T16:32:32.378Z,31.60
2019-05-19T16:35:04.686Z,31.50
2019-05-19T16:37:35.525Z,31.20
2019-05-19T16:40:08.689Z,31.10
2019-05-19T16:42:41.134Z,31.30
2019-05-19T16:45:16.265Z,31.70
2019-05-19T16:47:47.661Z,32.00
2019-05-19T16:50:19.486Z,32.60
2019-05-19T16:52:49.958Z,33.30
2019-05-19T16:55:32.559Z,34.10
2019-05-19T16:58:02.764Z,34.40
2019-05-19T17:00:33.345Z,34.60
2019-05-19T17:03:04.089Z,35.00
2019-05-19T17:05:34.632Z,35.60
2019-05-19T17:08:05.224Z,36.20
2019-05-19T17:10:35.797Z,36.60
2019-05-19T17:13:06.334Z,37.00
2019-05-19T17:15:36.835Z,37.00
2019-05-19T17:18:09.635Z,36.50
2019-05-19T17:20:40.203Z,35.90
2019-05-19T17:23:10.994Z,35.80
2019-05-19T17:25:42.961Z,35.60
2019-05-19T17:28:13.537Z,35.60
2019-05-19T17:30:44.868Z,35.60
2019-05-19T17:33:16.583Z,35.70
2019-05-19T17:35:47.569Z,35.90
2019-05-19T17:38:18.120Z,36.00
2019-05-19T17:40:48.600Z,36.90
2019-05-19T17:43:19.157Z,38.10
2019-05-19T17:45:49.759Z,39.60
2019-05-19T17:48:26.403Z,39.50
2019-05-19T17:50:53.925Z,40.40
2019-05-19T17:53:26.849Z,40.90
2019-05-19T17:55:59.568Z,41.20
2019-05-19T17:58:31.704Z,41.60
2019-05-19T18:01:02.538Z,43.00
2019-05-19T18:03:40.246Z,43.20
2019-05-19T18:06:11.211Z,42.90
2019-05-19T18:08:42.023Z,43.90
2019-05-19T18:11:12.670Z,44.30
2019-05-19T18:13:43.657Z,44.80
2019-05-19T18:16:21.563Z,44.90
2019-05-19T18:18:52.159Z,45.20
2019-05-19T18:21:22.772Z,45.70
2019-05-19T18:23:53.648Z,45.60
2019-05-19T18:26:24.181Z,45.60
2019-05-19T18:28:55.628Z,45.60
2019-05-19T18:31:31.893Z,45.50
2019-05-19T18:34:05.089Z,45.70
2019-05-19T18:36:35.904Z,45.60
2019-05-19T18:39:07.562Z,45.90
2019-05-19T18:41:38.500Z,45.90
2019-05-19T18:44:09.145Z,46.10
2019-05-19T18:46:40.017Z,46.00
2019-05-19T18:49:11.135Z,46.10
2019-05-19T18:51:44.240Z,46.10
2019-05-19T18:54:15.307Z,46.40
2019-05-19T18:56:51.085Z,46.70
2019-05-19T18:59:21.805Z,46.90
2019-05-19T19:02:00.710Z,47.10
2019-05-19T19:04:31.619Z,47.30
2019-05-19T19:07:04.555Z,48.00
2019-05-19T19:09:35.133Z,48.50
2019-05-19T19:12:06.944Z,49.10
2019-05-19T19:14:38.492Z,50.00
2019-05-19T19:17:10.870Z,50.70
2019-05-19T19:19:41.570Z,51.20
2019-05-19T19:22:12.472Z,51.90
2019-05-19T19:24:43.326Z,52.50
2019-05-19T19:27:14.287Z,53.10
2019-05-19T19:30:01.948Z,54.30
2019-05-19T19:32:19.718Z,54.50
2019-05-19T19:34:50.322Z,55.40
2019-05-19T19:37:20.891Z,56.70
2019-05-19T19:39:52.036Z,57.20
2019-05-19T19:42:30.492Z,57.60
2019-05-19T19:45:01.433Z,58.20
2019-05-19T19:47:32.038Z,59.10
2019-05-19T19:50:02.608Z,59.50
2019-05-19T19:52:42.456Z,59.90
2019-05-19T19:55:15.277Z,60.00
2019-05-19T19:57:46.371Z,60.60
2019-05-19T20:00:58.160Z,60.70
2019-05-19T20:03:30.566Z,60.10
2019-05-19T20:06:01.456Z,59.60
2019-05-19T20:08:32.530Z,59.60
2019-05-19T20:11:05.012Z,59.90
2019-05-19T20:13:43.555Z,60.10
2019-05-19T20:16:20.683Z,60.40
2019-05-19T20:19:07.358Z,61.90
2019-05-19T20:21:39.624Z,62.60
2019-05-19T20:24:18.665Z,63.90
2019-05-19T20:26:49.856Z,64.60
2019-05-19T20:29:21.832Z,64.40
2019-05-19T20:32:00.286Z,65.10
2019-05-19T20:34:31.002Z,65.40
2019-05-19T20:37:01.588Z,65.20
2019-05-19T20:39:32.436Z,65.10
2019-05-19T20:42:03.038Z,65.70
2019-05-19T20:44:33.634Z,65.90
2019-05-19T20:47:04.514Z,66.00
2019-05-19T20:49:35.111Z,65.70
2019-05-19T20:52:05.734Z,65.50
2019-05-19T20:54:36.300Z,65.60
2019-05-19T20:57:06.991Z,65.70
2019-05-19T20:59:40.755Z,65.70
2019-05-19T21:02:11.649Z,66.00
2019-05-19T21:04:42.265Z,66.00
2019-05-19T21:07:12.877Z,66.20
2019-05-19T21:09:43.384Z,66.80
2019-05-19T21:12:14.089Z,66.50
2019-05-19T21:14:44.890Z,66.70
2019-05-19T21:17:17.626Z,66.80
2019-05-19T21:19:49.700Z,68.00
2019-05-19T21:22:20.179Z,67.10
2019-05-19T21:24:51.049Z,67.30
2019-05-19T21:27:23.423Z,67.60
2019-05-19T21:29:54.101Z,67.70
2019-05-19T21:32:25.083Z,67.80
2019-05-19T21:34:56.233Z,67.60
2019-05-19T21:37:26.772Z,68.30
2019-05-19T21:39:57.332Z,68.70
2019-05-19T21:42:28.303Z,69.50
2019-05-19T21:44:58.805Z,69.90
2019-05-19T21:47:29.441Z,70.30
2019-05-19T21:50:00.308Z,70.50
2019-05-19T21:52:30.852Z,70.70
2019-05-19T21:55:01.387Z,71.10
2019-05-19T21:57:31.915Z,71.60
2019-05-19T22:00:02.555Z,71.80
2019-05-19T22:02:33.057Z,72.20
2019-05-19T22:05:03.794Z,72.60
2019-05-19T22:07:43.394Z,72.70
2019-05-19T22:10:14.217Z,73.20
2019-05-19T22:12:44.877Z,73.30
2019-05-19T22:15:15.663Z,73.70
2019-05-19T22:17:46.507Z,73.90
2019-05-19T22:20:17.101Z,74.00
2019-05-19T22:22:48.745Z,74.30
2019-05-19T22:25:19.205Z,74.50
2019-05-19T22:27:49.718Z,74.30
2019-05-19T22:30:20.225Z,74.50
2019-05-19T22:32:51.012Z,74.60
2019-05-19T22:35:21.828Z,75.90
2019-05-19T22:37:52.502Z,74.90
2019-05-19T22:40:23.134Z,74.80
2019-05-19T22:42:53.787Z,75.00
2019-05-19T22:45:24.306Z,75.10
2019-05-19T22:47:55.018Z,75.40
2019-05-19T22:50:25.598Z,75.40
2019-05-19T22:52:56.096Z,75.40
2019-05-19T22:55:26.577Z,75.40
2019-05-19T22:57:57.073Z,75.60
2019-05-19T23:00:28.036Z,75.60
2019-05-19T23:02:58.519Z,75.70
2019-05-19T23:05:28.989Z,75.70
2019-05-19T23:08:00.924Z,75.80
2019-05-19T23:10:31.441Z,75.90
2019-05-19T23:13:01.948Z,75.90
2019-05-19T23:15:32.646Z,76.10
2019-05-19T23:18:04.305Z,76.20
2019-05-19T23:20:36.437Z,76.30
2019-05-19T23:23:06.992Z,76.30
2019-05-19T23:25:39.032Z,76.30
2019-05-19T23:28:09.530Z,76.50
2019-05-19T23:30:40.032Z,76.40
2019-05-19T23:33:10.530Z,76.50
2019-05-19T23:35:41.076Z,76.60
2019-05-19T23:38:11.605Z,76.60
2019-05-19T23:40:42.137Z,76.70
2019-05-19T23:43:12.674Z,76.70
2019-05-19T23:45:43.344Z,76.80
2019-05-19T23:48:13.927Z,76.70
2019-05-19T23:50:44.502Z,76.80
2019-05-19T23:53:15.278Z,77.00
2019-05-19T23:55:46.056Z,77.00
2019-05-19T23:58:16.546Z,77.90
